createdAt,value
2019-05-06T00:00:56.601Z,5.03
2019-05-06T00:03:24.815Z,6.37
2019-05-06T00:05:55.743Z,4.40
2019-05-06T00:08:27.276Z,4.83
2019-05-06T00:10:58.528Z,7.12
2019-05-06T00:13:29.691Z,4.53
2019-05-06T00:16:00.887Z,4.00
2019-05-06T00:18:34.272Z,4.97
2019-05-06T00:21:05.626Z,4.40
2019-05-06T00:23:41.711Z,4.47
2019-05-06T00:26:30.445Z,4.25
2019-05-06T00:29:05.867Z,4.78
2019-05-06T00:31:37.189Z,6.12
2019-05-06T00:34:08.636Z,5.78
2019-05-06T00:36:40.172Z,4.67
2019-05-06T00:39:24.364Z,5.03
2019-05-06T00:42:04.394Z,4.50
2019-05-06T00:44:35.537Z,5.62
2019-05-06T00:47:06.794Z,6.78
2019-05-06T00:49:37.970Z,5.22
2019-05-06T00:52:09.194Z,4.45
2019-05-06T00:54:43.537Z,5.45
2019-05-06T00:57:14.528Z,5.30
2019-05-06T00:59:45.971Z,6.25
2019-05-06T01:02:17.140Z,5.25
2019-05-06T01:04:48.623Z,5.90
2019-05-06T01:07:19.847Z,4.47
2019-05-06T01:09:51.027Z,4.40
2019-05-06T01:12:23.999Z,7.00
2019-05-06T01:14:56.433Z,6.78
2019-05-06T01:17:27.578Z,5.53
2019-05-06T01:19:59.427Z,5.72
2019-05-06T01:22:30.889Z,5.03
2019-05-06T01:25:03.971Z,4.92
2019-05-06T01:27:34.938Z,7.15
2019-05-06T01:30:06.832Z,6.47
2019-05-06T01:32:38.125Z,5.85
2019-05-06T01:35:09.400Z,6.03
2019-05-06T01:37:41.359Z,4.80
2019-05-06T01:40:30.231Z,4.85
2019-05-06T01:43:14.425Z,4.95
2019-05-06T01:45:46.053Z,6.30
2019-05-06T01:50:49.395Z,4.97
2019-05-06T01:53:20.937Z,6.30
2019-05-06T01:55:54.467Z,4.67
2019-05-06T01:58:25.711Z,4.58
2019-05-06T02:00:57.252Z,5.87
2019-05-06T02:03:28.477Z,4.97
2019-05-06T02:05:59.661Z,5.65
2019-05-06T02:08:30.911Z,7.58
2019-05-06T02:11:04.136Z,5.67
2019-05-06T02:13:35.686Z,5.58
2019-05-06T02:16:06.843Z,6.83
2019-05-06T02:18:37.992Z,5.55
2019-05-06T02:21:14.439Z,5.55
2019-05-06T02:23:50.334Z,5.53
2019-05-06T02:26:23.783Z,7.15
2019-05-06T02:28:56.342Z,4.75
2019-05-06T02:31:49.413Z,4.97
2019-05-06T02:34:49.066Z,5.47
2019-05-06T02:37:26.341Z,5.33
2019-05-06T02:40:05.480Z,5.15
2019-05-06T02:42:36.798Z,5.70
2019-05-06T02:45:08.971Z,5.53
2019-05-06T02:47:49.755Z,4.22
2019-05-06T02:50:23.895Z,5.53
2019-05-06T02:52:55.698Z,5.60
2019-05-06T02:55:26.943Z,6.08
2019-05-06T02:57:58.225Z,5.80
2019-05-06T03:00:29.758Z,4.90
2019-05-06T03:03:02.883Z,5.28
2019-05-06T03:05:34.548Z,5.87
2019-05-06T03:08:06.108Z,5.35
2019-05-06T03:10:37.656Z,6.15
2019-05-06T03:13:09.170Z,5.55
2019-05-06T03:15:43.108Z,5.53
2019-05-06T03:18:15.092Z,5.17
2019-05-06T03:21:04.102Z,5.92
2019-05-06T03:23:37.758Z,5.42
2019-05-06T03:26:08.971Z,5.78
2019-05-06T03:28:43.586Z,6.67
2019-05-06T03:31:16.488Z,5.87
2019-05-06T03:34:03.791Z,5.47
2019-05-06T03:36:27.279Z,5.87
2019-05-06T03:38:54.021Z,5.12
2019-05-06T03:43:57.006Z,4.92
2019-05-06T03:46:47.097Z,5.40
2019-05-06T03:49:18.293Z,6.95
2019-05-06T03:51:49.619Z,5.53
2019-05-06T03:54:23.203Z,5.15
2019-05-06T03:56:54.951Z,5.25
2019-05-06T03:59:27.426Z,8.28
2019-05-06T04:01:58.653Z,7.62
2019-05-06T04:04:32.978Z,6.33
2019-05-06T04:07:03.570Z,6.55
2019-05-06T04:09:36.787Z,7.17
2019-05-06T04:12:09.168Z,7.95
2019-05-06T04:14:43.139Z,7.00
2019-05-06T04:17:38.959Z,6.90
2019-05-06T04:20:19.919Z,6.05
2019-05-06T04:22:58.083Z,6.03
2019-05-06T04:25:47.582Z,7.80
2019-05-06T04:28:23.853Z,7.92
2019-05-06T04:30:55.020Z,6.85
2019-05-06T04:33:26.894Z,7.25
2019-05-06T04:38:28.295Z,5.70
2019-05-06T04:41:02.752Z,6.33
2019-05-06T04:43:33.979Z,6.67
2019-05-06T04:46:05.355Z,6.92
2019-05-06T04:48:36.669Z,7.25
2019-05-06T04:51:08.143Z,6.80
2019-05-06T04:53:39.307Z,6.55
2019-05-06T04:56:10.527Z,7.55
2019-05-06T04:58:42.866Z,7.87
2019-05-06T05:01:15.744Z,7.03
2019-05-06T05:03:47.900Z,7.33
2019-05-06T05:06:19.054Z,6.80
2019-05-06T05:08:53.113Z,6.30
2019-05-06T05:11:38.861Z,8.40
2019-05-06T05:14:33.548Z,7.62
2019-05-06T05:17:17.649Z,8.15
2019-05-06T05:19:49.139Z,7.00
2019-05-06T05:22:21.903Z,6.90
2019-05-06T05:24:53.539Z,8.53
2019-05-06T05:27:24.995Z,8.78
2019-05-06T05:29:56.181Z,7.35
2019-05-06T05:32:27.328Z,7.60
2019-05-06T05:34:59.288Z,7.30
2019-05-06T05:37:32.838Z,9.65
2019-05-06T05:40:04.635Z,9.08
2019-05-06T05:42:51.643Z,7.40
2019-05-06T05:45:23.103Z,7.85
2019-05-06T05:47:56.082Z,7.65
2019-05-06T05:50:32.492Z,8.25
2019-05-06T05:53:04.809Z,6.47
2019-05-06T05:55:35.991Z,7.75
2019-05-06T05:58:07.195Z,7.53
2019-05-06T06:00:38.355Z,7.35
2019-05-06T06:03:09.851Z,7.85
2019-05-06T06:05:42.796Z,7.35
2019-05-06T06:08:14.109Z,7.55
2019-05-06T06:11:09.704Z,6.10
2019-05-06T06:13:43.228Z,7.37
2019-05-06T06:16:42.311Z,8.20
2019-05-06T06:19:38.206Z,9.63
2019-05-06T06:22:15.465Z,7.45
2019-05-06T06:24:46.947Z,6.05
2019-05-06T06:27:18.990Z,7.33
2019-05-06T06:29:52.606Z,9.00
2019-05-06T06:32:25.879Z,6.80
2019-05-06T06:35:32.382Z,9.43
2019-05-06T06:38:13.051Z,6.60
2019-05-06T06:40:44.550Z,5.80
2019-05-06T06:43:20.214Z,9.55
2019-05-06T06:45:53.077Z,12.58
2019-05-06T06:48:24.456Z,11.88
2019-05-06T06:50:56.125Z,12.37
2019-05-06T06:53:33.743Z,14.53
2019-05-06T06:56:26.045Z,10.10
2019-05-06T06:59:13.348Z,9.53
2019-05-06T07:02:05.222Z,8.73
2019-05-06T07:04:45.352Z,6.05
2019-05-06T07:07:18.111Z,5.87
2019-05-06T07:09:49.290Z,8.65
2019-05-06T07:12:23.310Z,8.23
2019-05-06T07:15:02.369Z,8.10
2019-05-06T07:17:33.255Z,4.83
2019-05-06T07:20:08.190Z,6.97
2019-05-06T07:22:39.497Z,11.48
2019-05-06T07:25:12.791Z,5.10
2019-05-06T07:27:45.146Z,9.30
2019-05-06T07:30:16.832Z,7.12
2019-05-06T07:35:18.428Z,13.28
2019-05-06T07:37:49.986Z,7.45
2019-05-06T07:40:22.061Z,8.30
2019-05-06T07:42:55.505Z,7.92
2019-05-06T07:45:42.365Z,5.25
2019-05-06T07:48:16.165Z,6.37
2019-05-06T07:50:49.223Z,6.37
2019-05-06T07:53:22.391Z,6.60
2019-05-06T07:55:56.800Z,5.92
2019-05-06T07:58:29.190Z,5.87
2019-05-06T08:01:02.626Z,8.15
2019-05-06T08:03:34.359Z,5.00
2019-05-06T08:06:05.657Z,4.70
2019-05-06T08:08:36.896Z,4.20
2019-05-06T08:11:08.133Z,4.95
2019-05-06T08:13:39.570Z,5.12
2019-05-06T08:16:13.170Z,5.25
2019-05-06T08:18:44.857Z,3.92
2019-05-06T08:21:22.355Z,4.33
2019-05-06T08:23:53.761Z,3.90
2019-05-06T08:26:24.950Z,6.37
2019-05-06T08:28:56.581Z,6.10
2019-05-06T08:31:28.125Z,4.85
2019-05-06T08:33:59.301Z,5.22
2019-05-06T08:36:55.606Z,5.45
2019-05-06T08:39:27.118Z,4.47
2019-05-06T08:41:58.322Z,5.15
2019-05-06T08:44:29.524Z,4.83
2019-05-06T08:47:02.526Z,6.17
2019-05-06T08:49:52.918Z,4.65
2019-05-06T08:52:27.389Z,5.83
2019-05-06T08:55:02.357Z,3.37
2019-05-06T08:57:34.233Z,4.45
2019-05-06T09:00:06.020Z,4.42
2019-05-06T09:02:37.575Z,5.47
2019-05-06T09:05:08.761Z,5.47
2019-05-06T09:07:52.359Z,6.60
2019-05-06T09:10:24.703Z,5.30
2019-05-06T09:12:55.974Z,5.35
2019-05-06T09:15:27.234Z,4.10
2019-05-06T09:17:58.837Z,3.98
2019-05-06T09:20:32.463Z,5.85
2019-05-06T09:23:04.695Z,4.03
2019-05-06T09:25:36.743Z,6.72
2019-05-06T09:31:29.110Z,4.28
2019-05-06T09:34:06.495Z,3.33
2019-05-06T09:36:43.905Z,4.12
2019-05-06T09:39:12.975Z,7.70
2019-05-06T09:41:47.221Z,5.97
2019-05-06T09:44:17.260Z,5.50
2019-05-06T09:46:48.800Z,4.85
2019-05-06T09:49:23.781Z,5.80
2019-05-06T09:51:55.916Z,4.47
2019-05-06T09:54:34.585Z,5.47
2019-05-06T09:57:13.032Z,4.20
2019-05-06T09:59:44.581Z,3.60
2019-05-06T10:02:16.142Z,9.43
2019-05-06T10:04:48.236Z,6.03
2019-05-06T10:07:22.397Z,6.75
2019-05-06T10:09:53.501Z,5.30
2019-05-06T10:12:25.106Z,7.65
2019-05-06T10:14:56.984Z,5.85
2019-05-06T10:17:28.581Z,5.95
2019-05-06T10:20:02.593Z,5.47
2019-05-06T10:22:33.287Z,6.03
2019-05-06T10:25:04.977Z,7.67
2019-05-06T10:27:38.895Z,3.60
2019-05-06T10:30:12.527Z,5.65
2019-05-06T10:32:53.728Z,5.97
2019-05-06T10:35:29.153Z,5.00
2019-05-06T10:38:07.726Z,7.92
2019-05-06T10:40:57.225Z,3.85
2019-05-06T10:43:52.554Z,5.85
2019-05-06T10:46:24.203Z,5.00
2019-05-06T10:48:55.688Z,5.30
2019-05-06T10:51:57.694Z,6.83
2019-05-06T10:54:28.955Z,6.20
2019-05-06T10:57:28.538Z,6.55
2019-05-06T10:59:59.740Z,4.25
2019-05-06T11:02:58.712Z,5.03
2019-05-06T11:05:32.388Z,5.37
2019-05-06T11:08:03.715Z,3.33
2019-05-06T11:10:41.079Z,6.08
2019-05-06T11:13:09.169Z,5.10
2019-05-06T11:15:43.124Z,4.87
2019-05-06T11:18:13.898Z,2.90
2019-05-06T11:20:45.537Z,3.98
2019-05-06T11:23:16.714Z,3.42
2019-05-06T11:25:48.261Z,3.47
2019-05-06T11:28:37.279Z,2.83
2019-05-06T11:31:27.581Z,3.62
2019-05-06T11:34:17.995Z,3.77
2019-05-06T11:36:52.475Z,4.95
2019-05-06T11:39:24.140Z,5.42
2019-05-06T11:42:14.978Z,6.12
2019-05-06T11:44:29.102Z,4.67
2019-05-06T11:47:00.303Z,5.90
2019-05-06T11:49:32.648Z,3.98
2019-05-06T11:52:04.101Z,4.62
2019-05-06T11:54:36.810Z,7.35
2019-05-06T11:57:12.246Z,7.78
2019-05-06T11:59:43.514Z,4.90
2019-05-06T12:04:47.787Z,6.47
2019-05-06T12:07:18.982Z,6.15
2019-05-06T12:09:50.190Z,4.70
2019-05-06T12:12:23.324Z,5.12
2019-05-06T12:14:54.670Z,5.10
2019-05-06T12:17:26.155Z,6.08
2019-05-06T12:19:57.423Z,3.92
2019-05-06T12:22:35.698Z,5.50
2019-05-06T12:25:11.755Z,5.05
2019-05-06T12:27:44.942Z,4.72
2019-05-06T12:30:23.095Z,4.85
2019-05-06T12:33:13.072Z,6.15
2019-05-06T12:35:47.677Z,3.42
2019-05-06T12:38:30.380Z,5.22
2019-05-06T12:40:59.888Z,4.72
2019-05-06T12:43:50.103Z,4.30
2019-05-06T12:46:24.834Z,4.25
2019-05-06T12:48:56.092Z,6.53
2019-05-06T12:51:27.357Z,5.55
2019-05-06T12:53:58.638Z,6.35
2019-05-06T12:56:30.247Z,5.80
2019-05-06T12:59:02.265Z,3.47
2019-05-06T13:01:34.862Z,7.30
2019-05-06T13:04:06.077Z,4.62
2019-05-06T13:06:38.023Z,4.40
2019-05-06T13:09:12.739Z,6.83
2019-05-06T13:11:44.190Z,7.33
2019-05-06T13:14:16.283Z,6.08
2019-05-06T13:16:47.476Z,6.78
2019-05-06T13:19:18.951Z,6.80
2019-05-06T13:21:50.121Z,7.15
2019-05-06T13:24:22.853Z,5.22
2019-05-06T13:26:54.157Z,6.03
2019-05-06T13:29:28.686Z,5.10
2019-05-06T13:32:02.028Z,6.87
2019-05-06T13:34:34.025Z,5.83
2019-05-06T13:39:37.187Z,5.67
2019-05-06T13:44:38.488Z,6.90
2019-05-06T13:47:13.267Z,6.33
2019-05-06T13:49:54.422Z,7.35
2019-05-06T13:52:27.416Z,6.00
2019-05-06T13:55:01.903Z,4.83
2019-05-06T13:57:33.132Z,4.15
2019-05-06T14:00:05.525Z,6.08
2019-05-06T14:02:49.522Z,4.58
2019-05-06T14:05:21.419Z,7.37
2019-05-06T14:07:53.091Z,4.62
2019-05-06T14:10:24.911Z,4.95
2019-05-06T14:15:26.507Z,5.25
2019-05-06T14:17:58.002Z,4.80
2019-05-06T14:20:29.598Z,6.90
2019-05-06T14:23:02.289Z,3.30
2019-05-06T14:25:52.831Z,6.12
2019-05-06T14:28:33.165Z,7.12
2019-05-06T14:31:16.238Z,5.20
2019-05-06T14:33:47.529Z,5.90
2019-05-06T14:36:18.778Z,5.70
2019-05-06T14:38:53.370Z,5.33
2019-05-06T14:41:27.387Z,5.83
2019-05-06T14:43:59.106Z,6.78
2019-05-06T14:46:51.547Z,5.83
2019-05-06T14:49:22.798Z,5.65
2019-05-06T14:51:54.671Z,5.08
2019-05-06T14:54:26.291Z,3.80
2019-05-06T14:57:02.749Z,7.12
2019-05-06T14:59:33.978Z,5.37
2019-05-06T15:02:05.612Z,6.50
2019-05-06T15:04:37.724Z,4.05
2019-05-06T15:07:08.923Z,4.37
2019-05-06T15:09:55.369Z,6.65
2019-05-06T15:12:13.432Z,4.20
2019-05-06T15:14:46.129Z,6.83
2019-05-06T15:17:18.029Z,5.30
2019-05-06T15:22:19.787Z,5.58
2019-05-06T15:24:53.565Z,4.65
2019-05-06T15:27:25.891Z,4.37
2019-05-06T15:30:03.131Z,5.67
2019-05-06T15:32:36.230Z,6.83
2019-05-06T15:35:35.823Z,7.10
2019-05-06T15:38:12.799Z,8.13
2019-05-06T15:40:44.252Z,7.22
2019-05-06T15:43:15.864Z,6.40
2019-05-06T15:45:47.315Z,9.15
2019-05-06T15:48:18.828Z,7.03
2019-05-06T15:50:50.064Z,5.37
2019-05-06T15:53:22.464Z,7.15
2019-05-06T15:55:54.079Z,5.67
2019-05-06T15:58:25.764Z,6.22
2019-05-06T16:00:57.329Z,8.38
2019-05-06T16:03:28.501Z,5.10
2019-05-06T16:06:01.967Z,8.73
2019-05-06T16:08:33.548Z,7.22
2019-05-06T16:11:04.747Z,6.87
2019-05-06T16:13:35.913Z,9.18
2019-05-06T16:16:07.347Z,7.83
2019-05-06T16:18:42.331Z,6.20
2019-05-06T16:21:13.543Z,6.05
2019-05-06T16:23:54.914Z,5.30
2019-05-06T16:26:25.926Z,6.22
2019-05-06T16:28:58.169Z,6.08
2019-05-06T16:31:29.807Z,4.28
2019-05-06T16:34:03.112Z,5.65
2019-05-06T16:36:34.433Z,5.95
2019-05-06T16:39:07.942Z,6.95
2019-05-06T16:41:39.366Z,4.47
2019-05-06T16:44:12.695Z,5.15
2019-05-06T16:46:43.743Z,4.60
2019-05-06T16:49:14.903Z,7.10
2019-05-06T16:51:46.052Z,5.40
2019-05-06T16:54:17.642Z,5.17
2019-05-06T16:57:02.630Z,5.45
2019-05-06T16:59:33.891Z,3.02
2019-05-06T17:02:13.785Z,4.55
2019-05-06T17:04:49.720Z,6.28
2019-05-06T17:07:22.184Z,4.17
2019-05-06T17:09:54.602Z,5.05
2019-05-06T17:12:26.063Z,7.15
2019-05-06T17:14:57.520Z,7.20
2019-05-06T17:17:42.743Z,4.53
2019-05-06T17:20:03.123Z,5.50
2019-05-06T17:22:35.303Z,4.22
2019-05-06T17:25:07.080Z,6.50
2019-05-06T17:27:40.504Z,6.65
2019-05-06T17:30:40.718Z,8.03
2019-05-06T17:33:29.593Z,6.30
2019-05-06T17:36:03.068Z,6.05
2019-05-06T17:38:39.121Z,6.47
2019-05-06T17:41:12.361Z,8.38
2019-05-06T17:43:45.296Z,9.48
2019-05-06T17:46:19.399Z,8.53
2019-05-06T17:49:03.051Z,7.47
2019-05-06T17:51:42.434Z,10.98
2019-05-06T17:54:13.237Z,12.45
2019-05-06T17:56:45.049Z,12.55
2019-05-06T18:01:48.671Z,9.78
2019-05-06T18:04:22.598Z,12.43
2019-05-06T18:06:53.583Z,8.50
2019-05-06T18:11:58.752Z,10.72
2019-05-06T18:14:29.868Z,7.00
2019-05-06T18:17:03.443Z,9.43
2019-05-06T18:19:34.724Z,9.30
2019-05-06T18:22:06.671Z,17.00
2019-05-06T18:24:38.193Z,9.43
2019-05-06T18:27:09.703Z,9.98
2019-05-06T18:29:42.402Z,9.63
2019-05-06T18:32:13.767Z,10.38
2019-05-06T18:34:45.376Z,10.60
2019-05-06T18:37:16.612Z,10.60
2019-05-06T18:39:49.388Z,9.58
2019-05-06T18:42:23.559Z,9.38
2019-05-06T18:44:53.828Z,10.32
2019-05-06T18:47:25.781Z,10.90
2019-05-06T18:49:56.989Z,12.15
2019-05-06T18:52:28.230Z,11.65
2019-05-06T18:54:59.696Z,9.20
2019-05-06T18:57:32.475Z,9.78
2019-05-06T19:00:05.071Z,9.25
2019-05-06T19:02:39.293Z,11.10
2019-05-06T19:07:46.920Z,10.48
2019-05-06T19:10:27.433Z,9.98
2019-05-06T19:12:59.004Z,9.68
2019-05-06T19:15:32.749Z,13.18
2019-05-06T19:18:04.175Z,10.18
2019-05-06T19:20:35.725Z,10.75
2019-05-06T19:23:06.955Z,10.20
2019-05-06T19:25:38.139Z,10.60
2019-05-06T19:28:09.597Z,11.03
2019-05-06T19:30:41.199Z,9.85
2019-05-06T19:33:12.480Z,10.18
2019-05-06T19:35:43.773Z,9.80
2019-05-06T19:38:15.300Z,12.33
2019-05-06T19:40:46.489Z,10.23
2019-05-06T19:43:18.058Z,9.38
2019-05-06T19:45:49.224Z,11.70
2019-05-06T19:48:22.194Z,10.65
2019-05-06T19:50:53.628Z,11.22
2019-05-06T19:53:25.187Z,11.12
2019-05-06T19:55:56.778Z,9.95
2019-05-06T19:58:27.944Z,12.00
2019-05-06T20:00:59.563Z,11.68
2019-05-06T20:03:32.764Z,10.90
2019-05-06T20:06:24.343Z,10.55
2019-05-06T20:09:03.995Z,11.12
2019-05-06T20:11:39.754Z,12.75
2019-05-06T20:14:13.427Z,10.82
2019-05-06T20:16:44.437Z,13.45
2019-05-06T20:19:29.816Z,11.15
2019-05-06T20:21:52.792Z,11.05
2019-05-06T20:24:24.326Z,11.63
2019-05-06T20:26:55.504Z,11.80
2019-05-06T20:29:27.377Z,12.10
2019-05-06T20:31:58.836Z,12.07
2019-05-06T20:34:32.088Z,12.78
2019-05-06T20:37:03.338Z,8.73
2019-05-06T20:39:35.386Z,8.90
2019-05-06T20:42:06.910Z,10.58
2019-05-06T20:44:38.100Z,11.38
2019-05-06T20:47:13.039Z,11.90
2019-05-06T20:49:46.688Z,11.63
2019-05-06T20:52:18.219Z,9.93
2019-05-06T20:54:49.882Z,9.23
2019-05-06T20:57:22.953Z,10.88
2019-05-06T20:59:54.388Z,10.60
2019-05-06T21:02:26.547Z,9.18
2019-05-06T21:04:58.996Z,10.93
2019-05-06T21:07:32.304Z,11.50
2019-05-06T21:10:04.012Z,9.60
2019-05-06T21:12:36.955Z,10.03
2019-05-06T21:15:09.608Z,9.58
2019-05-06T21:17:42.041Z,11.73
2019-05-06T21:20:14.156Z,10.10
2019-05-06T21:22:48.595Z,8.78
2019-05-06T21:25:18.741Z,10.30
2019-05-06T21:27:50.231Z,10.10
2019-05-06T21:30:21.392Z,7.45
2019-05-06T21:32:52.886Z,9.73
2019-05-06T21:35:24.045Z,9.38
2019-05-06T21:37:55.219Z,9.00
2019-05-06T21:40:26.676Z,8.60
2019-05-06T21:42:58.378Z,7.58
2019-05-06T21:45:29.561Z,8.75
2019-05-06T21:48:02.763Z,9.95
2019-05-06T21:50:34.210Z,6.47
2019-05-06T21:53:06.582Z,6.67
2019-05-06T21:55:37.755Z,6.30
2019-05-06T21:58:08.952Z,7.37
2019-05-06T22:00:57.875Z,6.72
2019-05-06T22:03:29.621Z,6.58
2019-05-06T22:06:02.220Z,7.40
2019-05-06T22:08:33.989Z,8.40
2019-05-06T22:11:05.323Z,8.35
2019-05-06T22:13:36.558Z,7.37
2019-05-06T22:16:07.760Z,9.80
2019-05-06T22:18:39.284Z,10.15
2019-05-06T22:21:22.508Z,7.72
2019-05-06T22:23:55.819Z,8.68
2019-05-06T22:26:27.945Z,6.83
2019-05-06T22:28:59.458Z,7.42
2019-05-06T22:31:33.046Z,8.38
2019-05-06T22:34:04.770Z,7.47
2019-05-06T22:36:35.961Z,6.62
2019-05-06T22:39:07.552Z,7.60
2019-05-06T22:41:40.321Z,5.80
2019-05-06T22:44:14.077Z,10.03
2019-05-06T22:46:45.968Z,7.47
2019-05-06T22:49:17.122Z,8.50
2019-05-06T22:51:52.050Z,8.43
2019-05-06T22:54:24.631Z,7.90
2019-05-06T22:56:56.365Z,7.28
2019-05-06T22:59:27.952Z,6.08
2019-05-06T23:02:22.594Z,8.20
2019-05-06T23:04:57.418Z,8.80
2019-05-06T23:07:28.865Z,6.90
2019-05-06T23:10:00.364Z,6.75
2019-05-06T23:12:32.548Z,5.53
2019-05-06T23:15:04.023Z,6.85
2019-05-06T23:17:35.277Z,5.55
2019-05-06T23:20:06.811Z,6.65
2019-05-06T23:22:38.920Z,7.92
2019-05-06T23:25:12.524Z,6.97
2019-05-06T23:27:44.277Z,7.53
2019-05-06T23:30:15.912Z,5.65
2019-05-06T23:32:47.070Z,6.67
2019-05-06T23:35:19.495Z,6.95
2019-05-06T23:38:26.032Z,6.40
2019-05-06T23:41:32.830Z,6.12
2019-05-06T23:44:45.597Z,4.97
2019-05-06T23:47:49.645Z,6.75
2019-05-06T23:50:56.113Z,7.62
2019-05-06T23:54:03.166Z,7.60
2019-05-06T23:56:43.994Z,6.72
2019-05-06T23:59:17.385Z,7.55
